Time;durP1;ratioP1;P1;durP2;ratioP2;P2;SDS_P1;SDS_P2;PMS_P1;PMS_P2;Temp;Humidity;BMP_temperature;BMP_pressure;BME280_temperature;BME280_humidity;BME280_pressure;Samples;Min_cycle;Max_cycle;Signal;HPM_P1;HPM_P2
2023/12/07 00:01:34;;;;;;;64.20;48.67;;;;;;;-1.83;100.00;101801.81;5042154;28;20051;-69
2023/12/07 00:04:00;;;;;;;61.83;46.40;;;;;;;-1.85;100.00;101813.94;5039096;28;20063;-69
2023/12/07 00:06:25;;;;;;;64.15;48.42;;;;;;;-1.82;100.00;101816.59;5042489;28;20041;-69
2023/12/07 00:08:50;;;;;;;70.78;51.50;;;;;;;-1.84;100.00;101810.47;5041837;28;20124;-69
2023/12/07 00:11:16;;;;;;;66.85;49.75;;;;;;;-1.90;100.00;101810.38;5042793;28;20111;-69
2023/12/07 00:13:41;;;;;;;69.80;50.17;;;;;;;-1.89;100.00;101814.75;5043277;28;20140;-69
2023/12/07 00:16:07;;;;;;;62.97;48.97;;;;;;;-1.95;100.00;101809.44;5043094;28;20042;-69
2023/12/07 00:18:32;;;;;;;61.38;47.88;;;;;;;-1.92;100.00;101805.16;5043348;28;20564;-70
2023/12/07 00:20:57;;;;;;;65.05;48.25;;;;;;;-1.93;100.00;101802.50;5042289;28;20364;-68
2023/12/07 00:23:23;;;;;;;64.03;48.85;;;;;;;-1.95;100.00;101801.59;5043420;28;20048;-69
2023/12/07 00:25:49;;;;;;;66.47;50.15;;;;;;;-2.02;100.00;101791.06;5041746;28;20039;-68
2023/12/07 00:28:14;;;;;;;66.63;49.53;;;;;;;-2.04;100.00;101799.75;5042361;28;20434;-69
2023/12/07 00:30:40;;;;;;;68.10;50.42;;;;;;;-2.06;100.00;101797.09;5043217;28;20033;-69
2023/12/07 00:33:05;;;;;;;63.30;48.70;;;;;;;-2.05;100.00;101795.34;5039177;28;20031;-69
2023/12/07 00:35:31;;;;;;;67.38;50.13;;;;;;;-2.05;100.00;101801.47;5043066;28;20041;-68
2023/12/07 00:37:56;;;;;;;69.75;51.10;;;;;;;-2.07;100.00;101803.16;5043109;28;20214;-68
2023/12/07 00:40:22;;;;;;;69.80;51.28;;;;;;;-2.01;100.00;101800.66;5043508;28;20024;-68
2023/12/07 00:42:48;;;;;;;72.43;53.50;;;;;;;-1.95;100.00;101807.69;5042807;28;20036;-68
2023/12/07 00:45:13;;;;;;;71.43;52.65;;;;;;;-1.93;100.00;101805.97;5042935;28;20040;-68
2023/12/07 00:47:39;;;;;;;70.15;52.10;;;;;;;-1.93;100.00;101807.72;5043457;28;20033;-69
2023/12/07 00:50:05;;;;;;;72.20;52.58;;;;;;;-1.99;100.00;101805.03;5039558;28;20033;-68
2023/12/07 00:52:30;;;;;;;67.93;52.10;;;;;;;-1.99;100.00;101797.19;5042900;28;20029;-68
2023/12/07 00:54:56;;;;;;;68.38;52.30;;;;;;;-1.99;100.00;101800.69;5031892;28;20036;-68
2023/12/07 00:57:21;;;;;;;74.38;53.05;;;;;;;-2.08;100.00;101790.97;5042334;28;20713;-68
2023/12/07 00:59:47;;;;;;;64.38;50.42;;;;;;;-2.09;100.00;101804.88;5041184;28;20052;-68
2023/12/07 01:02:15;;;;;;;65.30;50.75;;;;;;;-2.17;100.00;101792.53;5025095;28;20104;-67
2023/12/07 01:04:40;;;;;;;70.60;52.28;;;;;;;-2.09;100.00;101801.38;5039335;28;20364;-68
2023/12/07 01:07:06;;;;;;;66.95;51.80;;;;;;;-2.11;100.00;101809.19;5042331;28;20032;-68
2023/12/07 01:09:31;;;;;;;73.15;53.75;;;;;;;-2.11;100.00;101806.56;5038213;28;20041;-68
2023/12/07 01:11:58;;;;;;;70.18;52.17;;;;;;;-2.04;100.00;101807.56;5041847;28;20025;-67
2023/12/07 01:14:24;;;;;;;65.88;50.47;;;;;;;-2.03;100.00;101814.53;5042652;28;20029;-67
2023/12/07 01:16:49;;;;;;;77.30;54.13;;;;;;;-2.06;100.00;101809.25;5042657;28;20025;-67
2023/12/07 01:19:14;;;;;;;74.78;54.97;;;;;;;-2.03;100.00;101818.00;5038733;28;20372;-67
2023/12/07 01:21:43;;;;;;;84.18;58.63;;;;;;;-1.93;100.00;101815.53;5039778;28;20029;-68
2023/12/07 01:24:09;;;;;;;81.18;59.40;;;;;;;-1.93;100.00;101824.25;5042293;28;20116;-68
2023/12/07 01:26:34;;;;;;;78.80;56.45;;;;;;;-1.90;100.00;101813.88;5019359;28;20117;-68
2023/12/07 01:29:00;;;;;;;78.43;57.92;;;;;;;-1.89;100.00;101822.56;5034411;28;20284;-69
2023/12/07 01:31:25;;;;;;;77.43;57.08;;;;;;;-1.96;100.00;101810.31;5041126;28;20049;-68
2023/12/07 01:33:51;;;;;;;79.82;56.92;;;;;;;-1.97;100.00;101818.94;5040685;28;20064;-68
2023/12/07 01:36:16;;;;;;;75.47;55.63;;;;;;;-2.01;100.00;101813.72;5041666;28;20086;-68
2023/12/07 01:38:43;;;;;;;73.00;54.53;;;;;;;-2.10;100.00;101816.16;5042401;28;20104;-69
2023/12/07 01:41:09;;;;;;;69.63;53.45;;;;;;;-2.09;100.00;101820.53;5023170;28;20116;-68
2023/12/07 01:43:34;;;;;;;70.55;52.50;;;;;;;-2.02;100.00;101819.75;5040916;28;20510;-68
2023/12/07 01:46:00;;;;;;;72.80;53.63;;;;;;;-2.00;100.00;101822.41;5037415;28;20108;-68
2023/12/07 01:48:27;;;;;;;72.90;54.92;;;;;;;-2.01;100.00;101812.81;5040274;28;20060;-68
2023/12/07 01:50:56;;;;;;;80.47;56.42;;;;;;;-1.92;100.00;101812.06;5040983;28;20474;-68
2023/12/07 01:53:23;;;;;;;76.35;55.20;;;;;;;-1.85;100.00;101820.03;5041850;28;20025;-68
2023/12/07 01:55:50;;;;;;;77.80;54.83;;;;;;;-1.77;100.00;101826.25;5040930;28;20032;-68
2023/12/07 01:58:18;;;;;;;86.22;58.95;;;;;;;-1.70;100.00;101811.56;5041966;28;20809;-68
2023/12/07 02:00:45;;;;;;;94.38;60.28;;;;;;;-1.71;100.00;101808.91;5041806;28;20087;-68
2023/12/07 02:03:12;;;;;;;120.78;65.32;;;;;;;-1.65;100.00;101815.13;5040852;28;20110;-68
2023/12/07 02:05:40;;;;;;;124.20;64.95;;;;;;;-1.61;100.00;101816.91;5037615;28;20108;-68
2023/12/07 02:08:06;;;;;;;189.23;73.53;;;;;;;-1.62;100.00;101812.56;5022708;28;20029;-68
2023/12/07 02:10:31;;;;;;;164.02;69.30;;;;;;;-1.57;100.00;101823.94;5039810;28;20039;-69
2023/12/07 02:12:57;;;;;;;128.10;60.75;;;;;;;-1.53;100.00;101817.91;5041611;28;20463;-69
2023/12/07 02:15:22;;;;;;;133.95;62.40;;;;;;;-1.52;100.00;101818.78;5041987;28;20100;-68
2023/12/07 02:17:57;;;;;;;117.63;59.83;;;;;;;-1.49;100.00;101823.19;5041188;28;20024;-68
2023/12/07 02:20:31;;;;;;;130.02;62.45;;;;;;;-1.45;100.00;101827.59;5024881;28;20031;-68
2023/12/07 02:23:03;;;;;;;163.73;67.97;;;;;;;-1.49;100.00;101823.19;5040816;28;20037;-68
2023/12/07 02:25:37;;;;;;;161.38;65.03;;;;;;;-1.44;100.00;101826.72;5041071;28;20040;-69
2023/12/07 02:28:03;;;;;;;169.65;68.10;;;;;;;-1.44;100.00;101826.72;5041516;28;20430;-69
2023/12/07 02:30:28;;;;;;;125.55;62.95;;;;;;;-1.41;100.00;101829.38;5038825;28;20021;-69
2023/12/07 02:32:53;;;;;;;152.38;65.75;;;;;;;-1.44;100.00;101827.59;5041024;28;20424;-68
2023/12/07 02:35:19;;;;;;;137.52;62.22;;;;;;;-1.45;100.00;101825.84;5029512;28;20025;-68
2023/12/07 02:37:48;;;;;;;165.73;66.97;;;;;;;-1.38;100.00;101834.63;5044664;28;20119;-68
2023/12/07 02:40:25;;;;;;;171.07;66.72;;;;;;;-1.38;100.00;101839.84;5037478;28;20073;-68
2023/12/07 02:42:52;;;;;;;140.32;63.53;;;;;;;-1.38;100.00;101832.94;5045737;28;20204;-68
2023/12/07 02:45:18;;;;;;;195.82;73.03;;;;;;;-1.39;100.00;101827.66;5045230;28;20052;-68
2023/12/07 02:47:46;;;;;;;162.07;65.78;;;;;;;-1.38;100.00;101824.19;5043667;28;20560;-68
2023/12/07 02:50:13;;;;;;;165.18;67.75;;;;;;;-1.38;100.00;101827.69;5042929;28;20451;-68
2023/12/07 02:52:38;;;;;;;201.35;72.28;;;;;;;-1.43;100.00;101828.47;5044322;28;20438;-68
2023/12/07 02:55:05;;;;;;;158.65;63.42;;;;;;;-1.45;100.00;101825.84;5045158;28;20311;-68
2023/12/07 02:57:32;;;;;;;163.10;62.08;;;;;;;-1.47;100.00;101819.72;5043972;28;20055;-68
2023/12/07 02:59:57;;;;;;;135.55;59.20;;;;;;;-1.49;100.00;101813.59;5042284;28;20086;-68
2023/12/07 03:02:22;;;;;;;147.57;57.17;;;;;;;-1.48;100.00;101819.69;5042049;28;20036;-68
2023/12/07 03:04:48;;;;;;;140.07;57.28;;;;;;;-1.51;100.00;101826.63;5041823;28;20535;-68
2023/12/07 03:07:13;;;;;;;156.18;59.20;;;;;;;-1.52;100.00;101816.16;5044677;28;20590;-68
2023/12/07 03:09:39;;;;;;;186.13;61.80;;;;;;;-1.55;100.00;101819.63;5044279;28;20568;-69
2023/12/07 03:12:05;;;;;;;140.05;56.30;;;;;;;-1.51;100.00;101825.75;5044362;28;20124;-69
2023/12/07 03:14:30;;;;;;;172.25;61.05;;;;;;;-1.52;100.00;101821.38;5044628;28;20029;-69
2023/12/07 03:16:55;;;;;;;225.77;68.07;;;;;;;-1.52;100.00;101822.25;5044315;28;20029;-69
2023/12/07 03:19:21;;;;;;;145.25;61.38;;;;;;;-1.49;100.00;101823.19;5044728;28;20259;-68
2023/12/07 03:21:46;;;;;;;186.55;66.53;;;;;;;-1.53;100.00;101823.13;5043823;28;20025;-69
2023/12/07 03:24:11;;;;;;;133.60;59.75;;;;;;;-1.44;100.00;101831.94;5042396;28;20025;-68
2023/12/07 03:26:37;;;;;;;128.95;57.83;;;;;;;-1.43;100.00;101824.13;5042378;28;20025;-69
2023/12/07 03:29:03;;;;;;;150.20;59.15;;;;;;;-1.39;100.00;101822.44;5044115;28;20037;-69
2023/12/07 03:31:28;;;;;;;202.55;61.05;;;;;;;-1.46;100.00;101828.41;5043189;28;20494;-69
2023/12/07 03:33:56;;;;;;;171.25;59.20;;;;;;;-1.49;100.00;101831.88;5025967;28;20029;-69
2023/12/07 03:36:22;;;;;;;114.97;50.72;;;;;;;-1.50;100.00;101827.53;5042331;28;20024;-69
2023/12/07 03:38:49;;;;;;;162.98;52.80;;;;;;;-1.53;100.00;101836.19;5024971;28;20033;-70
2023/12/07 03:41:17;;;;;;;118.47;50.92;;;;;;;-1.55;100.00;101824.84;5042522;28;20075;-68
2023/12/07 03:43:42;;;;;;;147.05;52.00;;;;;;;-1.50;100.00;101832.75;5044215;28;20108;-69
2023/12/07 03:46:08;;;;;;;140.73;52.25;;;;;;;-1.51;100.00;101837.06;5043261;28;20562;-70
2023/12/07 03:48:34;;;;;;;157.40;51.58;;;;;;;-1.56;100.00;101838.75;5042783;28;20036;-69
2023/12/07 03:51:00;;;;;;;189.73;52.03;;;;;;;-1.59;100.00;101837.81;5041857;28;20029;-69
2023/12/07 03:53:26;;;;;;;148.57;48.45;;;;;;;-1.62;100.00;101836.06;5043536;28;20109;-69
2023/12/07 03:55:52;;;;;;;181.48;52.03;;;;;;;-1.63;100.00;101860.41;5043407;28;20385;-70
2023/12/07 03:58:17;;;;;;;166.43;50.33;;;;;;;-1.61;100.00;101855.19;5042554;28;20029;-69
2023/12/07 04:00:46;;;;;;;142.60;48.92;;;;;;;-1.58;100.00;101863.09;5043831;28;21152;-70
2023/12/07 04:03:12;;;;;;;108.18;45.35;;;;;;;-1.56;100.00;101859.63;5039699;28;20116;-71
2023/12/07 04:05:37;;;;;;;134.98;47.47;;;;;;;-1.61;100.00;101856.06;5042486;28;20471;-71
2023/12/07 04:08:05;;;;;;;101.32;43.42;;;;;;;-1.56;100.00;101861.38;5043130;28;20033;-69
2023/12/07 04:10:30;;;;;;;133.35;45.67;;;;;;;-1.57;100.00;101868.31;5041663;28;20029;-69
2023/12/07 04:12:56;;;;;;;150.30;43.85;;;;;;;-1.62;100.00;101867.38;5041628;28;20040;-68
2023/12/07 04:15:21;;;;;;;111.35;41.60;;;;;;;-1.60;100.00;101872.63;5042126;28;20349;-69
2023/12/07 04:17:46;;;;;;;131.40;45.15;;;;;;;-1.60;100.00;101857.81;5042813;28;20037;-68
2023/12/07 04:20:13;;;;;;;131.35;44.63;;;;;;;-1.59;100.00;101869.13;5042760;28;20017;-68
2023/12/07 04:22:38;;;;;;;100.68;40.30;;;;;;;-1.58;100.00;101861.34;5042853;28;20159;-68
2023/12/07 04:25:04;;;;;;;103.75;42.67;;;;;;;-1.59;100.00;101869.13;5043041;28;20596;-69
2023/12/07 04:27:30;;;;;;;123.22;40.53;;;;;;;-1.56;100.00;101877.91;5024939;28;20088;-68
2023/12/07 04:29:55;;;;;;;100.32;39.58;;;;;;;-1.62;100.00;101866.50;5043299;28;20029;-68
2023/12/07 04:32:20;;;;;;;109.55;39.17;;;;;;;-1.53;100.00;101880.56;5042923;28;20090;-68
2023/12/07 04:34:45;;;;;;;104.35;40.45;;;;;;;-1.60;100.00;101876.09;5042443;28;20032;-68
2023/12/07 04:37:11;;;;;;;126.32;42.72;;;;;;;-1.58;100.00;101877.00;5042852;28;20102;-69
2023/12/07 04:39:37;;;;;;;97.95;37.25;;;;;;;-1.68;100.00;101863.78;5022814;28;20470;-69
2023/12/07 04:42:03;;;;;;;97.20;37.90;;;;;;;-1.59;100.00;101879.59;5041879;28;20036;-70
2023/12/07 04:44:28;;;;;;;91.05;34.30;;;;;;;-1.61;100.00;101882.19;5042072;28;20070;-69
2023/12/07 04:46:53;;;;;;;86.47;33.88;;;;;;;-1.61;100.00;101879.56;5040511;28;20107;-70
2023/12/07 04:49:19;;;;;;;81.95;33.05;;;;;;;-1.59;100.00;101876.97;5038848;28;20523;-68
2023/12/07 04:51:47;;;;;;;85.30;34.42;;;;;;;-1.67;100.00;101855.09;5043983;28;20192;-69
2023/12/07 04:54:14;;;;;;;100.43;35.85;;;;;;;-1.63;100.00;101873.47;5043362;28;20689;-69
2023/12/07 04:56:43;;;;;;;79.93;33.85;;;;;;;-1.62;100.00;101869.13;5023200;28;20189;-69
2023/12/07 04:59:09;;;;;;;79.75;32.10;;;;;;;-1.66;100.00;101851.66;5042512;28;20063;-68
2023/12/07 05:01:36;;;;;;;76.30;29.80;;;;;;;-1.55;100.00;101870.94;5042032;28;20089;-69
2023/12/07 05:04:03;;;;;;;99.95;34.03;;;;;;;-1.66;100.00;101849.03;5039163;28;20033;-68
2023/12/07 05:06:29;;;;;;;98.22;32.00;;;;;;;-1.55;100.00;101861.41;5036680;28;20024;-68
2023/12/07 05:08:55;;;;;;;71.50;30.60;;;;;;;-1.52;100.00;101853.59;5041612;28;20035;-68
2023/12/07 05:11:20;;;;;;;84.13;31.80;;;;;;;-1.49;100.00;101847.56;5042616;28;20476;-68
2023/12/07 05:13:45;;;;;;;84.28;32.70;;;;;;;-1.51;100.00;101850.13;5042845;28;20230;-68
2023/12/07 05:16:11;;;;;;;83.95;32.42;;;;;;;-1.43;100.00;101838.91;5042653;28;20029;-68
2023/12/07 05:18:36;;;;;;;88.22;31.73;;;;;;;-1.43;100.00;101828.47;5041423;28;20043;-68
2023/12/07 05:21:01;;;;;;;104.53;32.83;;;;;;;-1.44;100.00;101834.56;5042333;28;20062;-69
2023/12/07 05:23:27;;;;;;;92.85;30.40;;;;;;;-1.46;100.00;101834.56;5039339;28;20041;-69
2023/12/07 05:25:53;;;;;;;114.90;34.55;;;;;;;-1.43;100.00;101842.41;5041932;28;20044;-69
2023/12/07 05:28:18;;;;;;;79.05;30.45;;;;;;;-1.39;100.00;101838.97;5042022;28;20503;-69
2023/12/07 05:30:44;;;;;;;88.38;31.13;;;;;;;-1.37;100.00;101837.28;5042132;28;20425;-68
2023/12/07 05:33:09;;;;;;;92.15;30.38;;;;;;;-1.37;100.00;101839.91;5040102;28;20112;-68
2023/12/07 05:35:34;;;;;;;91.10;30.77;;;;;;;-1.37;100.00;101833.78;5041947;28;20481;-69
2023/12/07 05:37:59;;;;;;;121.20;34.13;;;;;;;-1.37;100.00;101842.50;5040341;28;20053;-68
2023/12/07 05:40:26;;;;;;;94.47;31.48;;;;;;;-1.34;100.00;101844.25;5040721;28;20025;-69
2023/12/07 05:42:51;;;;;;;103.30;32.65;;;;;;;-1.34;100.00;101836.44;5041596;28;20040;-68
2023/12/07 05:45:17;;;;;;;91.10;32.42;;;;;;;-1.30;100.00;101827.78;5041409;28;20503;-69
2023/12/07 05:47:42;;;;;;;89.80;30.98;;;;;;;-1.29;100.00;101822.59;5041533;28;20051;-70
2023/12/07 05:50:08;;;;;;;81.88;31.85;;;;;;;-1.25;100.00;101828.75;5041554;28;20056;-68
2023/12/07 05:52:33;;;;;;;93.30;31.35;;;;;;;-1.24;100.00;101827.88;5041804;28;20131;-68
2023/12/07 05:54:59;;;;;;;95.65;32.40;;;;;;;-1.25;100.00;101828.75;5023359;28;20028;-68
2023/12/07 05:57:24;;;;;;;109.28;32.58;;;;;;;-1.28;100.00;101829.56;5039266;28;20033;-68
2023/12/07 05:59:49;;;;;;;132.93;32.67;;;;;;;-1.30;100.00;101822.56;5041034;28;20044;-69
2023/12/07 06:02:15;;;;;;;84.28;30.45;;;;;;;-1.28;100.00;101829.56;5041335;28;20059;-69
2023/12/07 06:04:40;;;;;;;91.57;32.15;;;;;;;-1.26;100.00;101829.56;5040102;28;20465;-69
2023/12/07 06:07:06;;;;;;;100.25;32.65;;;;;;;-1.24;100.00;101834.84;5038525;28;20032;-69
2023/12/07 06:09:31;;;;;;;122.72;33.53;;;;;;;-1.26;100.00;101827.84;5040440;28;20483;-69
2023/12/07 06:11:57;;;;;;;103.80;33.25;;;;;;;-1.26;100.00;101821.75;5041625;28;20033;-69
2023/12/07 06:14:25;;;;;;;97.72;30.63;;;;;;;-1.28;100.00;101820.84;5024666;28;20256;-70
2023/12/07 06:16:50;;;;;;;87.03;30.60;;;;;;;-1.25;100.00;101836.59;5041640;28;20108;-69
2023/12/07 06:19:19;;;;;;;79.50;28.73;;;;;;;-1.23;100.00;101827.00;5041765;28;20116;-69
2023/12/07 06:21:44;;;;;;;105.82;30.58;;;;;;;-1.32;100.00;101816.44;5042483;28;20497;-69
2023/12/07 06:24:10;;;;;;;91.45;29.83;;;;;;;-1.23;100.00;101824.41;5042474;28;20025;-70
2023/12/07 06:26:35;;;;;;;96.63;31.17;;;;;;;-1.26;100.00;101817.38;5039106;28;20036;-71
2023/12/07 06:29:01;;;;;;;118.13;35.50;;;;;;;-1.22;100.00;101823.53;5042236;28;20376;-71
2023/12/07 06:31:27;;;;;;;97.22;32.45;;;;;;;-1.20;100.00;101827.06;5041566;28;20025;-69
2023/12/07 06:33:53;;;;;;;89.30;31.65;;;;;;;-1.15;100.00;101832.34;5038729;28;20032;-68
2023/12/07 06:36:22;;;;;;;96.07;31.50;;;;;;;-1.15;100.00;101837.56;5041494;28;20044;-72
2023/12/07 06:38:48;;;;;;;83.50;30.55;;;;;;;-1.14;100.00;101829.75;5041656;28;20043;-71
2023/12/07 06:41:14;;;;;;;95.35;32.47;;;;;;;-1.13;100.00;101825.38;5041751;28;20642;-71
2023/12/07 06:43:39;;;;;;;81.07;31.92;;;;;;;-1.12;100.00;101824.56;5038734;28;20032;-69
2023/12/07 06:46:05;;;;;;;99.80;31.77;;;;;;;-1.09;100.00;101820.22;5037113;28;20053;-70
2023/12/07 06:48:31;;;;;;;101.70;34.17;;;;;;;-1.13;100.00;101805.41;5038669;28;20032;-71
2023/12/07 06:50:56;;;;;;;104.88;32.80;;;;;;;-1.07;100.00;101809.81;5039960;28;20526;-70
2023/12/07 06:53:22;;;;;;;103.80;32.63;;;;;;;-1.09;100.00;101804.53;5040791;28;20162;-72
2023/12/07 06:55:47;;;;;;;81.80;32.45;;;;;;;-1.06;100.00;101804.59;5041184;28;20044;-69
2023/12/07 06:58:12;;;;;;;107.88;34.83;;;;;;;-1.06;100.00;101803.72;5023875;28;20032;-70
2023/12/07 07:00:38;;;;;;;75.28;30.83;;;;;;;-1.05;100.00;101801.09;5038517;28;20311;-70
2023/12/07 07:03:03;;;;;;;105.70;35.72;;;;;;;-1.06;100.00;101796.75;5041153;28;20420;-71
2023/12/07 07:05:29;;;;;;;159.93;41.13;;;;;;;-1.06;100.00;101788.91;5041570;28;20033;-70
2023/12/07 07:07:55;;;;;;;89.35;33.10;;;;;;;-1.02;100.00;101797.66;5039092;28;20499;-70
2023/12/07 07:10:21;;;;;;;100.35;35.22;;;;;;;-1.02;100.00;101797.66;5040532;28;20049;-68
2023/12/07 07:12:49;;;;;;;114.32;36.95;;;;;;;-1.01;100.00;101808.13;5041870;28;20495;-69
2023/12/07 07:15:15;;;;;;;97.72;36.83;;;;;;;-0.97;100.00;101808.16;5041372;28;20021;-70
2023/12/07 07:17:40;;;;;;;103.03;36.53;;;;;;;-1.04;100.00;101794.19;5041332;28;20036;-71
2023/12/07 07:20:06;;;;;;;103.32;36.42;;;;;;;-0.95;100.00;101807.34;5042787;28;20303;-70
2023/12/07 07:22:32;;;;;;;114.38;39.85;;;;;;;-0.94;100.00;101810.84;5027560;28;20036;-69
2023/12/07 07:24:57;;;;;;;116.93;39.33;;;;;;;-0.93;100.00;101813.44;5045144;28;20028;-71
2023/12/07 07:27:22;;;;;;;91.00;36.83;;;;;;;-0.89;100.00;101824.81;5044227;28;20029;-73
2023/12/07 07:29:48;;;;;;;104.40;39.72;;;;;;;-0.88;100.00;101818.72;5043400;28;20187;-72
2023/12/07 07:32:13;;;;;;;113.18;39.60;;;;;;;-0.87;100.00;101825.72;5046103;28;20295;-71
2023/12/07 07:34:39;;;;;;;108.30;38.17;;;;;;;-0.86;100.00;101828.34;5045227;28;20024;-71
2023/12/07 07:37:06;;;;;;;117.95;40.45;;;;;;;-0.84;100.00;101828.34;5045459;28;20499;-72
2023/12/07 07:39:32;;;;;;;94.00;38.20;;;;;;;-0.86;100.00;101822.25;5044370;28;20166;-73
2023/12/07 07:41:57;;;;;;;94.07;38.53;;;;;;;-0.83;100.00;101817.94;5044767;28;20033;-71
2023/12/07 07:44:23;;;;;;;110.13;42.25;;;;;;;-0.76;100.00;101831.94;5040337;28;20462;-71
2023/12/07 07:46:48;;;;;;;117.80;42.70;;;;;;;-0.77;100.00;101819.75;5042224;28;20471;-72
2023/12/07 07:49:13;;;;;;;147.77;45.53;;;;;;;-0.74;100.00;101825.00;5038007;28;20056;-72
2023/12/07 07:51:39;;;;;;;115.60;43.25;;;;;;;-0.80;100.00;101807.50;5040771;28;20033;-69
2023/12/07 07:54:04;;;;;;;114.00;42.63;;;;;;;-0.70;100.00;101818.94;5043212;28;20115;-71
2023/12/07 07:56:30;;;;;;;112.88;42.38;;;;;;;-0.68;100.00;101830.28;5043820;28;20033;-71
2023/12/07 07:58:55;;;;;;;103.18;42.65;;;;;;;-0.67;100.00;101821.63;5043135;28;20302;-71
2023/12/07 08:01:20;;;;;;;109.75;44.30;;;;;;;-0.69;100.00;101828.53;5043658;28;20032;-72
2023/12/07 08:03:46;;;;;;;103.00;41.88;;;;;;;-0.69;100.00;101818.09;5044193;28;20032;-70
2023/12/07 08:06:11;;;;;;;108.97;42.17;;;;;;;-0.67;100.00;101820.69;5038978;28;20021;-70
2023/12/07 08:08:36;;;;;;;93.38;39.05;;;;;;;-0.64;100.00;101820.75;5040188;28;20514;-71
2023/12/07 08:11:02;;;;;;;98.80;40.08;;;;;;;-0.65;100.00;101821.63;5042646;28;20020;-70
2023/12/07 08:13:27;;;;;;;95.85;39.08;;;;;;;-0.63;100.00;101814.66;5039909;28;20431;-69
2023/12/07 08:15:53;;;;;;;96.68;40.50;;;;;;;-0.64;100.00;101813.78;5043828;28;20029;-70
2023/12/07 08:18:19;;;;;;;93.25;39.55;;;;;;;-0.61;100.00;101811.19;5041913;28;20098;-68
2023/12/07 08:20:44;;;;;;;89.63;37.00;;;;;;;-0.64;100.00;101802.44;5044249;28;20106;-70
2023/12/07 08:23:10;;;;;;;102.60;38.58;;;;;;;-0.65;100.00;101812.03;5043374;28;20017;-70
2023/12/07 08:25:38;;;;;;;107.50;40.50;;;;;;;-0.64;100.00;101813.78;5042401;28;20032;-70
2023/12/07 08:28:03;;;;;;;96.10;37.88;;;;;;;-0.62;100.00;101822.53;5040424;28;20037;-69
2023/12/07 08:30:29;;;;;;;92.65;38.47;;;;;;;-0.60;100.00;101818.19;5040809;28;20079;-68
2023/12/07 08:32:54;;;;;;;102.45;40.72;;;;;;;-0.58;100.00;101818.22;5033537;28;20223;-70
2023/12/07 08:35:19;;;;;;;107.03;41.10;;;;;;;-0.67;100.00;101802.41;5043273;28;20035;-70
2023/12/07 08:37:45;;;;;;;101.95;41.08;;;;;;;-0.54;100.00;101814.78;5042085;28;20027;-68
2023/12/07 08:40:11;;;;;;;108.15;42.92;;;;;;;-0.52;100.00;101820.88;5042195;28;20253;-70
2023/12/07 08:42:37;;;;;;;107.28;41.28;;;;;;;-0.49;100.00;101823.53;5042050;28;20474;-70
2023/12/07 08:45:02;;;;;;;104.15;39.90;;;;;;;-0.47;100.00;101816.56;5042800;28;20290;-71
2023/12/07 08:47:30;;;;;;;106.50;42.55;;;;;;;-0.46;100.00;101813.13;5041601;28;20718;-69
2023/12/07 08:49:55;;;;;;;106.65;40.92;;;;;;;-0.44;100.00;101813.13;5041801;28;20028;-70
2023/12/07 08:52:20;;;;;;;111.55;40.42;;;;;;;-0.43;100.00;101817.47;5042279;28;20502;-71
2023/12/07 08:54:46;;;;;;;100.53;40.95;;;;;;;-0.42;100.00;101814.00;5042554;28;20025;-69
2023/12/07 08:57:12;;;;;;;97.25;39.63;;;;;;;-0.40;100.00;101820.13;5025297;28;20558;-69
2023/12/07 08:59:37;;;;;;;101.68;41.58;;;;;;;-0.36;100.00;101819.31;5041120;28;20025;-68
2023/12/07 09:02:03;;;;;;;99.03;41.83;;;;;;;-0.40;100.00;101821.00;5041807;28;20093;-70
2023/12/07 09:04:28;;;;;;;98.20;39.15;;;;;;;-0.34;100.00;101825.41;5045768;28;20033;-70
2023/12/07 09:06:54;;;;;;;93.38;40.88;;;;;;;-0.33;100.00;101835.91;5040790;28;20506;-69
2023/12/07 09:09:20;;;;;;;92.90;39.75;;;;;;;-0.32;100.00;101828.94;5041391;28;20038;-68
2023/12/07 09:11:45;;;;;;;89.65;38.75;;;;;;;-0.36;100.00;101806.22;5043266;28;20144;-70
2023/12/07 09:14:11;;;;;;;96.20;40.03;;;;;;;-0.27;100.00;101811.53;5044021;28;20071;-70
2023/12/07 09:16:43;;;;;;;88.38;40.60;;;;;;;-0.21;100.00;101806.34;5041608;28;20399;-69
2023/12/07 09:19:08;;;;;;;93.97;41.03;;;;;;;-0.14;100.00;101808.16;5023687;28;20028;-70
2023/12/07 09:21:34;;;;;;;94.28;42.20;;;;;;;-0.08;100.00;101810.84;5038530;28;20122;-71
2023/12/07 09:23:59;;;;;;;96.70;41.35;;;;;;;0.02;100.00;101806.53;5039449;28;20069;-71
2023/12/07 09:26:24;;;;;;;86.57;40.10;;;;;;;0.09;100.00;101813.59;5039177;28;20037;-69
2023/12/07 09:28:49;;;;;;;80.28;37.40;;;;;;;0.14;100.00;101808.38;5039555;28;20035;-70
2023/12/07 09:31:16;;;;;;;90.93;40.72;;;;;;;0.26;100.00;101805.84;5040064;28;20025;-70
2023/12/07 09:33:42;;;;;;;78.07;37.40;;;;;;;0.36;100.00;101799.81;5021409;28;20194;-70
2023/12/07 09:36:08;;;;;;;76.13;37.53;;;;;;;0.43;100.00;101791.13;5039753;28;20119;-70
2023/12/07 09:38:36;;;;;;;81.35;38.97;;;;;;;0.41;100.00;101787.59;5040378;28;20060;-70
2023/12/07 09:41:02;;;;;;;76.00;36.63;;;;;;;0.59;100.00;101791.22;5020461;28;20033;-70
2023/12/07 09:43:27;;;;;;;70.80;36.22;;;;;;;0.70;100.00;101781.66;5039063;28;20086;-71
2023/12/07 09:45:54;;;;;;;68.95;35.55;;;;;;;0.72;100.00;101780.81;5038445;28;20052;-71
2023/12/07 09:48:21;;;;;;;68.47;35.50;;;;;;;0.67;100.00;101765.91;5021355;28;20036;-70
2023/12/07 09:50:47;;;;;;;61.90;34.78;;;;;;;0.85;100.00;101781.72;5041673;28;20466;-71
2023/12/07 09:53:12;;;;;;;58.22;32.97;;;;;;;0.88;100.00;101778.22;5040964;28;20095;-70
2023/12/07 09:55:38;;;;;;;54.25;31.88;;;;;;;0.79;100.00;101765.09;5038958;28;20100;-70
2023/12/07 09:58:04;;;;;;;53.53;31.45;;;;;;;0.79;100.00;101771.19;5041065;28;20083;-71
2023/12/07 10:00:30;;;;;;;50.30;30.10;;;;;;;0.80;100.00;101766.88;5040443;28;20629;-71
2023/12/07 10:02:55;;;;;;;45.53;29.83;;;;;;;0.81;100.00;101755.50;5041259;28;20036;-70
2023/12/07 10:05:21;;;;;;;43.10;28.77;;;;;;;0.73;100.00;101755.47;5041085;28;20064;-71
2023/12/07 10:07:48;;;;;;;44.67;28.33;;;;;;;0.68;100.00;101744.09;5041096;28;20105;-70
2023/12/07 10:10:15;;;;;;;47.72;29.55;;;;;;;0.64;100.00;101742.34;5040937;28;20486;-70
2023/12/07 10:12:55;;;;;;;44.97;28.52;;;;;;;0.67;100.00;101737.97;5039187;28;20079;-70
2023/12/07 10:15:22;;;;;;;44.45;29.55;;;;;;;0.76;100.00;101724.03;5041370;28;20151;-70
2023/12/07 10:17:56;;;;;;;48.33;29.48;;;;;;;0.88;100.00;101723.19;5040277;28;20033;-70
2023/12/07 10:20:24;;;;;;;47.55;30.45;;;;;;;0.88;100.00;101721.47;5006492;28;20028;-70
2023/12/07 10:23:09;;;;;;;48.45;31.10;;;;;;;0.98;100.00;101717.09;5037410;28;20029;-70
2023/12/07 10:25:42;;;;;;;46.75;30.38;;;;;;;0.92;100.00;101704.88;5037934;28;20037;-71
2023/12/07 10:28:10;;;;;;;44.85;30.20;;;;;;;0.98;100.00;101701.38;5021879;28;20190;-71
2023/12/07 10:30:37;;;;;;;46.55;29.65;;;;;;;0.99;100.00;101701.38;5039371;28;20033;-71
2023/12/07 10:33:09;;;;;;;44.00;28.55;;;;;;;1.05;100.00;101699.66;5033765;28;21575;-71
2023/12/07 10:35:42;;;;;;;40.88;28.88;;;;;;;1.02;100.00;101684.78;5040306;28;20033;-70
2023/12/07 10:38:08;;;;;;;42.88;28.25;;;;;;;1.06;100.00;101690.91;5036495;28;20039;-70
2023/12/07 10:40:34;;;;;;;40.97;27.42;;;;;;;1.07;100.00;101687.41;5039648;28;20035;-70
2023/12/07 10:43:04;;;;;;;38.33;27.40;;;;;;;1.12;100.00;101689.16;5038660;28;20025;-70
2023/12/07 10:45:30;;;;;;;39.03;27.23;;;;;;;1.20;100.00;101687.44;5037676;28;20144;-72
2023/12/07 10:48:07;;;;;;;37.70;27.38;;;;;;;1.19;100.00;101685.69;5039666;28;20158;-70
2023/12/07 10:50:35;;;;;;;36.22;27.08;;;;;;;1.20;100.00;101678.69;5038475;28;20039;-71
2023/12/07 10:53:09;;;;;;;35.55;26.83;;;;;;;1.18;100.00;101669.97;5039523;28;20028;-72
2023/12/07 10:55:55;;;;;;;34.08;24.88;;;;;;;1.18;100.00;101670.84;5041715;28;20036;-70